Pagrindinis puslapis
METAR-TAF:

METAR-TAF

Oro uostai :

Arekipa, Peru

platuma: 16-19S, ilguma: 071-33W, Aukštis: 2538 m

Dabartinis oras

Ataskaita buvo paskelbta 49 minutes, ne 13:00 UTC
Vėjas 2 kt nuo kintamojo kryptimis
Temperatūra 16°C
Drėgmė 27%
Slėgis 1026 hPa
Matomumas 10 km arba daugiau
nėra debesų žemiau 1500 m ir nėra kamuolinių lietaus debesų

METAR: SPQU 201300Z VRB02KT CAVOK 16/M03 Q1026 NOSIG RMK QUAD NW VIS 8KM HZ PP000

Laikas: 08:49 (13:49 UTC)

Prognozė

Ataskaita buvo paskelbta 2 valandos ir 49 minutes, ne 11:00 UTC
Prognozė galioja nuo 20 metu 12 UTC su 21 metu 12 UTC
Vėjas 5 kt iš Šiaurės/Šiaurės Rytų
Matomumas 10 km arba daugiau
nėra debesų žemiau 1500 m ir nėra kamuolinių lietaus debesų
Tapsmas
nuo 20 metu 13 UTC su 20 metu 17 UTC
Vėjas 10 kt iš Vakarų/Pietvakarių
Tapsmas
nuo 21 metu 00 UTC su 21 metu 02 UTC
Vėjas 4 kt iš Šiaurės/Šiaurės Rytų

TAF: SPQU 201100Z 2012/2112 02005KT CAVOK TX22/2018Z TN09/2110Z BECMG 2013/2017 25010KT BECMG 2100/2102 03004KT

Orai ataskaitas ir orų prognozės (METAR, TAF).

turimą stotys yra geltonos ir raudonos taškus žemėlapyje.

Perkelti pele per norėdami pamatyti stoties vardą.

Tada spustelėkite, norėdami matyti oro stebėjimo ir prognozės.

Norėdami pakeisti žemėlapį: spustelėkite ant žalios mygtukų su juodo kryžiaus žemyn,; žalią mygtuką su brūkšneliu, jei norite nutolinti; arba žalių rodyklių gretimoms žemėlapius.


METAR-TAF: